CheckWX is a tool to help pilots better visualize weather data.  It is not intended as a substitute for an official pre-flight weather briefing.

08:00:37 UTC

KSME METAR
Lake Cumberland Regional Airport
Somerset, Kentucky, USA
Current

26 mins ago

KSME 260735Z AUTO 24007KT 10SM OVC031 01/M05 A3010 RMK AO2
Observed
Jan-26 @ 07:35 UTC
Wind
  • 240° at 7 KTS
Visibility
10 SM
Flight Rules
VFR
Cloud Levels
  • Overcast at 3,100' AGL
Temperature
C / 34°F
Dewpoint
-5°C / 23°F
Humidity
65%
Altimeter
30.1" Hg
Pressure
1019.32 hPa
Previous

46 mins ago

KSME 260715Z AUTO 24010G15KT 10SM OVC035 01/M06 A3010 RMK AO2
Observed
Jan-26 @ 07:15 UTC
Wind
  • 240° at 10 KTS
  • Gusting to 15 KTS
Visibility
10 SM
Flight Rules
VFR
Cloud Levels
  • Overcast at 3,500' AGL
Temperature
C / 34°F
Dewpoint
-6°C / 21°F
Humidity
60%
Altimeter
30.1" Hg
Pressure
1019.32 hPa
Previous

1 hour ago

KSME 260655Z AUTO 24011G16KT 10SM OVC035 01/M06 A3010 RMK AO2
Observed
Jan-26 @ 06:55 UTC
Wind
  • 240° at 11 KTS
  • Gusting to 16 KTS
Visibility
10 SM
Flight Rules
VFR
Cloud Levels
  • Overcast at 3,500' AGL
Temperature
C / 34°F
Dewpoint
-6°C / 21°F
Humidity
60%
Altimeter
30.1" Hg
Pressure
1019.32 hPa